createdAt,value
2023-08-11T00:00:22.362Z,99.90
2023-08-11T00:02:53.291Z,99.90
2023-08-11T00:05:21.421Z,99.90
2023-08-11T00:07:52.267Z,99.90
2023-08-11T00:10:20.747Z,99.90
2023-08-11T00:12:48.792Z,99.90
2023-08-11T00:15:16.151Z,99.90
2023-08-11T00:17:43.532Z,99.90
2023-08-11T00:20:13.790Z,99.90
2023-08-11T00:22:41.023Z,99.90
2023-08-11T00:25:09.321Z,99.90
2023-08-11T00:27:36.544Z,99.90
2023-08-11T00:30:05.537Z,99.90
2023-08-11T00:32:32.945Z,99.90
2023-08-11T00:35:00.743Z,99.90
2023-08-11T00:37:27.993Z,99.90
2023-08-11T00:39:55.387Z,99.90
2023-08-11T00:42:23.889Z,99.90
2023-08-11T00:44:51.432Z,99.90
2023-08-11T00:47:19.056Z,99.90
2023-08-11T00:49:46.355Z,99.90
2023-08-11T00:52:13.716Z,99.90
2023-08-11T00:54:42.270Z,99.90
2023-08-11T00:57:10.130Z,99.90
2023-08-11T00:59:37.727Z,99.90
2023-08-11T01:02:05.857Z,99.90
2023-08-11T01:04:34.330Z,99.90
2023-08-11T01:07:18.542Z,99.90
2023-08-11T01:10:00.896Z,99.90
2023-08-11T01:12:42.940Z,99.90
2023-08-11T01:15:23.508Z,99.90
2023-08-11T01:17:52.022Z,99.90
2023-08-11T01:20:21.784Z,99.90
2023-08-11T01:22:55.269Z,99.90
2023-08-11T01:25:23.182Z,99.90
2023-08-11T01:27:58.893Z,99.90
2023-08-11T01:30:28.701Z,99.90
2023-08-11T01:32:57.318Z,99.90
2023-08-11T01:35:38.373Z,99.90
2023-08-11T01:38:12.969Z,99.90
2023-08-11T01:40:41.292Z,99.90
2023-08-11T01:43:11.942Z,99.90
2023-08-11T01:45:40.385Z,99.90
2023-08-11T01:48:11.028Z,99.90
2023-08-11T01:50:39.311Z,99.90
2023-08-11T01:53:06.874Z,99.90
2023-08-11T01:55:35.170Z,99.90
2023-08-11T01:58:03.316Z,99.90
2023-08-11T02:00:30.585Z,99.90
2023-08-11T02:02:59.256Z,99.90
2023-08-11T02:05:27.394Z,99.90
2023-08-11T02:07:57.130Z,99.90
2023-08-11T02:10:24.842Z,99.90
2023-08-11T02:12:52.282Z,99.90
2023-08-11T02:15:19.903Z,99.90
2023-08-11T02:17:47.839Z,99.90
2023-08-11T02:20:23.997Z,99.90
2023-08-11T02:22:53.688Z,99.90
2023-08-11T02:25:23.001Z,99.90
2023-08-11T02:27:51.801Z,99.90
2023-08-11T02:30:19.726Z,99.90
2023-08-11T02:32:47.238Z,99.90
2023-08-11T02:35:18.405Z,99.90
2023-08-11T02:37:46.020Z,99.90
2023-08-11T02:40:13.877Z,99.90
2023-08-11T02:42:49.339Z,99.90
2023-08-11T02:45:16.942Z,99.90
2023-08-11T02:47:44.354Z,99.90
2023-08-11T02:50:12.311Z,99.90
2023-08-11T02:52:40.102Z,99.90
2023-08-11T02:55:08.849Z,99.90
2023-08-11T02:57:36.782Z,99.90
2023-08-11T03:00:11.287Z,99.90
2023-08-11T03:02:38.698Z,99.90
2023-08-11T03:05:08.486Z,99.90
2023-08-11T03:07:39.104Z,99.90
2023-08-11T03:10:07.630Z,99.90
2023-08-11T03:12:37.153Z,99.90
2023-08-11T03:15:06.409Z,99.90
2023-08-11T03:17:36.583Z,99.90
2023-08-11T03:20:08.972Z,99.90
2023-08-11T03:22:36.286Z,99.90
2023-08-11T03:25:05.066Z,99.90
2023-08-11T03:27:32.488Z,99.90
2023-08-11T03:30:00.307Z,99.90
2023-08-11T03:32:28.079Z,99.90
2023-08-11T03:34:56.177Z,99.90
2023-08-11T03:37:23.418Z,99.90
2023-08-11T03:39:50.649Z,99.90
2023-08-11T03:42:18.469Z,99.90
2023-08-11T03:44:46.133Z,99.90
2023-08-11T03:47:13.861Z,99.90
2023-08-11T03:49:42.457Z,99.90
2023-08-11T03:52:09.920Z,99.90
2023-08-11T03:54:45.160Z,99.90
2023-08-11T03:57:16.315Z,99.90
2023-08-11T03:59:45.062Z,99.90
2023-08-11T04:02:14.169Z,99.90
2023-08-11T04:04:42.033Z,99.90
2023-08-11T04:07:09.276Z,99.90
2023-08-11T04:09:41.017Z,99.90
2023-08-11T04:12:08.760Z,99.90
2023-08-11T04:14:38.508Z,99.90
2023-08-11T04:17:05.802Z,99.90
2023-08-11T04:19:33.149Z,99.90
2023-08-11T04:22:00.518Z,99.90
2023-08-11T04:24:28.670Z,99.90
2023-08-11T04:26:57.395Z,99.90
2023-08-11T04:29:25.214Z,99.90
2023-08-11T04:31:53.052Z,99.90
2023-08-11T04:34:21.555Z,99.90
2023-08-11T04:36:48.803Z,99.90
2023-08-11T04:39:16.872Z,99.90
2023-08-11T04:41:44.761Z,99.90
2023-08-11T04:44:12.014Z,99.90
2023-08-11T04:46:39.728Z,99.90
2023-08-11T04:49:07.549Z,99.90
2023-08-11T04:51:34.916Z,99.90
2023-08-11T04:54:04.075Z,99.90
2023-08-11T04:56:31.363Z,99.90
2023-08-11T04:58:58.659Z,99.90
2023-08-11T05:01:26.069Z,99.90
2023-08-11T05:03:54.077Z,99.90
2023-08-11T05:06:21.381Z,99.90
2023-08-11T05:08:48.654Z,99.90
2023-08-11T05:11:15.874Z,99.90
2023-08-11T05:13:44.174Z,99.90
2023-08-11T05:16:11.424Z,99.90
2023-08-11T05:18:43.994Z,99.90
2023-08-11T05:21:14.953Z,99.90
2023-08-11T05:23:42.892Z,99.90
2023-08-11T05:26:10.172Z,99.90
2023-08-11T05:28:37.508Z,99.90
2023-08-11T05:31:05.612Z,99.90
2023-08-11T05:33:35.823Z,99.90
2023-08-11T05:36:03.740Z,99.90
2023-08-11T05:38:31.008Z,99.90
2023-08-11T05:40:58.377Z,99.90
2023-08-11T05:43:25.674Z,99.90
2023-08-11T05:45:53.004Z,99.90
2023-08-11T05:48:20.271Z,99.90
2023-08-11T05:50:47.913Z,99.90
2023-08-11T05:53:15.199Z,99.90
2023-08-11T05:55:42.454Z,99.90
2023-08-11T05:58:10.780Z,99.90
2023-08-11T06:00:38.429Z,99.90
2023-08-11T06:03:05.667Z,99.90
2023-08-11T06:05:32.966Z,99.90
2023-08-11T06:08:06.692Z,99.90
2023-08-11T06:10:34.727Z,99.90
2023-08-11T06:13:02.426Z,99.90
2023-08-11T06:15:31.411Z,99.90
2023-08-11T06:17:58.868Z,99.90
2023-08-11T06:20:38.788Z,99.90
2023-08-11T06:23:09.383Z,99.90
2023-08-11T06:25:37.568Z,99.90
2023-08-11T06:28:05.526Z,99.90
2023-08-11T06:30:32.768Z,99.90
2023-08-11T06:33:00.255Z,99.90
2023-08-11T06:35:27.954Z,99.90
2023-08-11T06:37:55.339Z,99.90
2023-08-11T06:40:22.757Z,99.90
2023-08-11T06:42:49.984Z,99.90
2023-08-11T06:45:19.945Z,99.90
2023-08-11T06:47:47.278Z,99.90
2023-08-11T06:50:14.794Z,99.90
2023-08-11T06:52:42.064Z,99.90
2023-08-11T06:55:09.973Z,99.90
2023-08-11T06:57:38.181Z,99.90
2023-08-11T07:00:08.272Z,99.90
2023-08-11T07:02:36.316Z,99.90
2023-08-11T07:05:04.021Z,99.90
2023-08-11T07:07:31.415Z,99.90
2023-08-11T07:10:01.495Z,99.90
2023-08-11T07:12:30.761Z,99.90
2023-08-11T07:14:58.065Z,99.90
2023-08-11T07:17:25.706Z,99.90
2023-08-11T07:19:53.000Z,99.90
2023-08-11T07:22:20.260Z,99.90
2023-08-11T07:24:48.010Z,99.90
2023-08-11T07:27:17.554Z,99.90
2023-08-11T07:29:46.370Z,99.90
2023-08-11T07:32:13.636Z,99.90
2023-08-11T07:34:41.775Z,99.90
2023-08-11T07:37:09.655Z,99.90
2023-08-11T07:39:37.253Z,99.90
2023-08-11T07:42:04.788Z,99.90
2023-08-11T07:44:34.229Z,99.90
2023-08-11T07:47:03.647Z,99.90
2023-08-11T07:49:31.054Z,99.90
2023-08-11T07:51:58.506Z,99.90
2023-08-11T07:54:25.945Z,99.90
2023-08-11T07:56:53.995Z,99.90
2023-08-11T07:59:21.276Z,99.90
2023-08-11T08:01:48.779Z,99.90
2023-08-11T08:04:16.169Z,99.90
2023-08-11T08:06:46.697Z,99.90
2023-08-11T08:09:15.791Z,99.90
2023-08-11T08:11:45.120Z,99.90
2023-08-11T08:14:13.572Z,99.90
2023-08-11T08:16:48.598Z,99.90
2023-08-11T08:19:16.235Z,99.90
2023-08-11T08:21:43.981Z,99.90
2023-08-11T08:24:12.386Z,99.90
2023-08-11T08:26:39.610Z,99.90
2023-08-11T08:29:07.280Z,99.90
2023-08-11T08:31:34.543Z,99.90
2023-08-11T08:34:01.901Z,99.90
2023-08-11T08:36:29.379Z,99.90
2023-08-11T08:38:56.645Z,99.90
2023-08-11T08:41:29.256Z,99.90
2023-08-11T08:43:57.297Z,99.90
2023-08-11T08:46:31.347Z,99.90
2023-08-11T08:49:21.285Z,99.90
2023-08-11T08:51:49.284Z,99.90
2023-08-11T08:54:16.953Z,99.90
2023-08-11T08:56:45.040Z,99.90
2023-08-11T08:59:12.535Z,99.90
2023-08-11T09:01:40.103Z,99.90
2023-08-11T09:04:09.216Z,99.90
2023-08-11T09:06:36.835Z,99.90
2023-08-11T09:09:05.803Z,99.90
2023-08-11T09:11:34.008Z,99.90
2023-08-11T09:14:05.026Z,99.20
2023-08-11T09:16:34.862Z,98.30
2023-08-11T09:19:03.496Z,97.30
2023-08-11T09:21:31.786Z,96.30
2023-08-11T09:23:59.143Z,95.40
2023-08-11T09:26:26.621Z,94.80
2023-08-11T09:28:55.765Z,94.80
2023-08-11T09:31:26.482Z,94.30
2023-08-11T09:33:53.895Z,93.50
2023-08-11T09:36:21.640Z,92.10
2023-08-11T09:38:50.650Z,91.40
2023-08-11T09:41:18.256Z,91.20
2023-08-11T09:43:49.801Z,90.90
2023-08-11T09:46:26.188Z,90.30
2023-08-11T09:48:57.376Z,88.80
2023-08-11T09:51:24.997Z,89.60
2023-08-11T09:53:53.491Z,88.50
2023-08-11T09:56:22.494Z,88.00
2023-08-11T09:58:53.489Z,86.30
2023-08-11T10:01:22.649Z,86.90
2023-08-11T10:03:50.439Z,82.50
2023-08-11T10:13:48.360Z,83.10
2023-08-11T10:16:15.737Z,75.10
2023-08-11T10:18:44.713Z,72.20
2023-08-11T10:21:13.401Z,67.40
2023-08-11T10:23:41.707Z,67.00
2023-08-11T10:26:09.652Z,65.40
2023-08-11T10:31:06.668Z,63.20
2023-08-11T10:36:02.967Z,56.10
2023-08-11T10:48:52.003Z,58.50
2023-08-11T10:51:37.551Z,61.90
2023-08-11T10:54:07.779Z,64.70
2023-08-11T10:56:39.781Z,65.60
2023-08-11T10:59:26.846Z,66.90
2023-08-11T11:01:56.115Z,65.80
2023-08-11T11:04:27.285Z,67.20
2023-08-11T11:06:54.764Z,64.90
2023-08-11T11:09:23.137Z,62.50
2023-08-11T11:11:52.548Z,60.90
2023-08-11T11:14:20.325Z,59.00
2023-08-11T11:19:15.786Z,57.90
2023-08-11T11:21:43.093Z,53.20
2023-08-11T11:24:11.230Z,53.10
2023-08-11T11:26:38.776Z,54.50
2023-08-11T11:29:06.916Z,54.10
2023-08-11T11:31:37.075Z,54.40
2023-08-11T11:34:06.496Z,54.50
2023-08-11T11:36:35.018Z,53.60
2023-08-11T11:39:05.374Z,53.80
2023-08-11T11:41:33.556Z,52.60
2023-08-11T11:46:34.768Z,50.10
2023-08-11T11:49:15.743Z,45.30
2023-08-11T11:51:44.192Z,48.90
2023-08-11T11:59:23.706Z,47.30
2023-08-11T12:01:51.372Z,44.60
2023-08-11T12:04:19.015Z,43.60
2023-08-11T12:09:15.800Z,44.30
2023-08-11T12:11:43.099Z,44.00
2023-08-11T12:14:12.733Z,43.00
2023-08-11T12:16:40.028Z,41.80
2023-08-11T12:19:10.619Z,41.20
2023-08-11T12:21:38.359Z,39.60
2023-08-11T12:29:06.350Z,40.40
2023-08-11T12:31:33.658Z,37.40
2023-08-11T12:34:02.562Z,37.00
2023-08-11T12:36:29.959Z,36.90
2023-08-11T12:38:57.693Z,35.80
2023-08-11T12:41:25.028Z,36.60
2023-08-11T12:43:52.663Z,35.40
2023-08-11T12:46:19.946Z,36.00
2023-08-11T12:48:47.602Z,35.80
2023-08-11T12:51:14.983Z,36.50
2023-08-11T12:53:42.248Z,35.70
2023-08-11T12:56:09.562Z,36.20
2023-08-11T12:58:36.833Z,35.50
2023-08-11T13:01:07.759Z,35.80
2023-08-11T13:03:35.642Z,36.40
2023-08-11T13:06:02.960Z,35.10
2023-08-11T13:08:30.199Z,36.00
2023-08-11T13:13:25.470Z,35.20
2023-08-11T13:15:53.942Z,37.30
2023-08-11T13:18:21.314Z,37.00
2023-08-11T13:20:49.086Z,36.70
2023-08-11T13:23:16.359Z,36.70
2023-08-11T13:25:43.632Z,37.20
2023-08-11T13:28:10.879Z,36.50
2023-08-11T13:30:39.728Z,36.20
2023-08-11T13:33:08.195Z,36.80
2023-08-11T13:35:35.437Z,37.10
2023-08-11T13:38:03.383Z,37.50
2023-08-11T13:40:30.637Z,37.40
2023-08-11T13:42:57.860Z,37.50
2023-08-11T13:45:26.201Z,37.00
2023-08-11T13:47:54.552Z,38.10
2023-08-11T13:50:22.537Z,38.30
2023-08-11T13:52:50.349Z,38.20
2023-08-11T13:55:17.982Z,38.90
2023-08-11T13:57:49.097Z,38.90
2023-08-11T14:00:17.142Z,37.40
2023-08-11T14:02:44.385Z,38.20
2023-08-11T14:05:11.710Z,38.50
2023-08-11T14:07:39.110Z,38.30
2023-08-11T14:10:06.976Z,38.60
2023-08-11T14:12:34.509Z,38.00
2023-08-11T14:17:30.158Z,38.60
2023-08-11T14:19:57.411Z,39.30
2023-08-11T14:22:24.649Z,39.90
2023-08-11T14:24:53.397Z,38.70
2023-08-11T14:27:23.099Z,38.90
2023-08-11T14:29:50.311Z,38.60
2023-08-11T14:32:24.749Z,38.70
2023-08-11T14:34:53.861Z,39.20
2023-08-11T14:37:22.191Z,39.00
2023-08-11T14:39:49.806Z,39.10
2023-08-11T14:42:18.332Z,39.30
2023-08-11T14:44:45.626Z,39.20
2023-08-11T14:47:14.901Z,39.80
2023-08-11T14:55:01.282Z,40.10
2023-08-11T14:57:29.052Z,40.70
2023-08-11T14:59:56.508Z,41.60
2023-08-11T15:02:24.428Z,40.90
2023-08-11T15:04:54.501Z,42.10
2023-08-11T15:07:22.232Z,42.50
2023-08-11T15:09:49.757Z,43.40
2023-08-11T15:12:17.061Z,42.20
2023-08-11T15:14:44.301Z,42.90
2023-08-11T15:17:14.691Z,43.50
2023-08-11T15:19:41.900Z,43.70
2023-08-11T15:22:09.350Z,44.20
2023-08-11T15:24:37.831Z,45.30
2023-08-11T15:27:05.322Z,44.80
2023-08-11T15:29:32.524Z,46.10
2023-08-11T15:31:59.781Z,45.80
2023-08-11T15:34:27.088Z,45.10
2023-08-11T15:36:54.409Z,46.00
2023-08-11T15:39:22.388Z,47.90
2023-08-11T15:41:50.353Z,48.00
2023-08-11T15:44:20.799Z,48.60
2023-08-11T15:46:49.555Z,48.40
2023-08-11T15:49:16.853Z,49.20
2023-08-11T15:51:44.107Z,50.40
2023-08-11T15:54:11.703Z,51.00
2023-08-11T15:56:39.322Z,51.70
2023-08-11T15:59:08.799Z,51.30
2023-08-11T16:01:36.044Z,51.80
2023-08-11T16:04:04.331Z,51.70
2023-08-11T16:06:31.748Z,52.80
2023-08-11T16:08:58.982Z,52.60
2023-08-11T16:11:26.790Z,54.20
2023-08-11T16:13:54.426Z,55.40
2023-08-11T16:16:21.675Z,55.20
2023-08-11T16:18:49.668Z,57.10
2023-08-11T16:21:16.911Z,56.30
2023-08-11T16:23:44.161Z,58.30
2023-08-11T16:26:11.891Z,58.10
2023-08-11T16:28:39.169Z,59.00
2023-08-11T16:31:07.361Z,59.70
2023-08-11T16:33:35.371Z,60.10
2023-08-11T16:36:03.375Z,61.30
2023-08-11T16:38:31.220Z,62.20
2023-08-11T16:40:58.489Z,63.20
2023-08-11T16:43:26.196Z,61.50
2023-08-11T16:45:53.473Z,61.70
2023-08-11T16:48:21.326Z,61.00
2023-08-11T16:50:49.238Z,61.70
2023-08-11T16:53:16.512Z,61.80
2023-08-11T16:55:44.626Z,63.10
2023-08-11T16:58:11.837Z,63.30
2023-08-11T17:00:39.272Z,64.60
2023-08-11T17:03:06.630Z,65.10
2023-08-11T17:05:34.148Z,66.40
2023-08-11T17:08:02.044Z,66.20
2023-08-11T17:10:29.269Z,67.30
2023-08-11T17:12:56.522Z,67.30
2023-08-11T17:15:23.901Z,67.50
2023-08-11T17:17:51.277Z,68.90
2023-08-11T17:20:18.557Z,68.30
2023-08-11T17:22:48.944Z,68.90
2023-08-11T17:25:18.198Z,69.10
2023-08-11T17:27:50.601Z,68.40
2023-08-11T17:30:18.413Z,68.90
2023-08-11T17:32:46.468Z,69.60
2023-08-11T17:35:14.057Z,69.50
2023-08-11T17:37:41.309Z,71.00
2023-08-11T17:40:09.875Z,72.00
2023-08-11T17:42:37.161Z,73.40
2023-08-11T17:45:05.058Z,73.00
2023-08-11T17:47:36.163Z,72.90
2023-08-11T17:50:04.793Z,73.50
2023-08-11T17:52:32.046Z,74.30
2023-08-11T17:54:59.621Z,75.10
2023-08-11T17:57:26.846Z,75.60
2023-08-11T17:59:54.438Z,76.60
2023-08-11T18:02:21.921Z,77.20
2023-08-11T18:04:49.249Z,77.00
2023-08-11T18:07:16.453Z,77.30
2023-08-11T18:09:43.679Z,78.10
2023-08-11T18:12:11.447Z,78.90
2023-08-11T18:14:51.828Z,80.10
2023-08-11T18:17:19.053Z,80.80
2023-08-11T18:19:47.063Z,81.70
2023-08-11T18:22:14.954Z,82.40
2023-08-11T18:24:42.371Z,83.10
2023-08-11T18:27:09.677Z,84.00
2023-08-11T18:29:36.953Z,85.30
2023-08-11T18:32:04.995Z,86.60
2023-08-11T18:34:32.217Z,87.90
2023-08-11T18:36:59.436Z,89.20
2023-08-11T18:39:27.413Z,90.10
2023-08-11T18:41:54.723Z,90.60
2023-08-11T18:44:23.076Z,91.40
2023-08-11T18:46:51.192Z,92.10
2023-08-11T18:49:18.860Z,93.10
2023-08-11T18:51:46.511Z,93.80
2023-08-11T18:54:14.621Z,95.10
2023-08-11T18:56:43.585Z,97.40
2023-08-11T18:59:11.346Z,98.70
2023-08-11T19:01:39.721Z,99.80
2023-08-11T19:04:08.301Z,99.90
2023-08-11T19:06:38.320Z,99.90
2023-08-11T19:09:11.890Z,99.90
2023-08-11T19:11:39.229Z,99.90
2023-08-11T19:14:10.143Z,99.90
2023-08-11T19:16:37.553Z,99.90
2023-08-11T19:19:05.373Z,99.90
2023-08-11T19:21:33.318Z,99.90
2023-08-11T19:24:00.718Z,99.90
2023-08-11T19:26:27.924Z,99.90
2023-08-11T19:28:56.340Z,99.90
2023-08-11T19:31:23.635Z,99.90
2023-08-11T19:33:50.897Z,99.90
2023-08-11T19:36:18.118Z,99.90
2023-08-11T19:38:45.683Z,99.90
2023-08-11T19:41:13.137Z,99.90
2023-08-11T19:43:41.121Z,99.90
2023-08-11T19:46:08.680Z,99.90
2023-08-11T19:48:36.721Z,99.90
2023-08-11T19:51:04.833Z,99.90
2023-08-11T19:53:32.074Z,99.90
2023-08-11T19:55:59.301Z,99.90
2023-08-11T19:58:26.938Z,99.90
2023-08-11T20:00:54.138Z,99.90
2023-08-11T20:03:21.451Z,99.90
2023-08-11T20:05:49.308Z,99.90
2023-08-11T20:08:16.691Z,99.90
2023-08-11T20:10:49.213Z,99.90
2023-08-11T20:13:17.815Z,99.90
2023-08-11T20:15:45.193Z,99.90
2023-08-11T20:18:12.834Z,99.90
2023-08-11T20:20:44.880Z,99.90
2023-08-11T20:23:12.421Z,99.90
2023-08-11T20:25:39.721Z,99.90
2023-08-11T20:28:06.963Z,99.90
2023-08-11T20:30:36.056Z,99.90
2023-08-11T20:33:03.608Z,99.90
2023-08-11T20:35:30.997Z,99.90
2023-08-11T20:37:58.334Z,99.90
2023-08-11T20:40:26.058Z,99.90
2023-08-11T20:42:53.574Z,99.90
2023-08-11T20:45:21.526Z,99.90
2023-08-11T20:47:49.186Z,99.90
2023-08-11T20:50:16.677Z,99.90
2023-08-11T20:52:43.965Z,99.90
2023-08-11T20:55:11.238Z,99.90
2023-08-11T20:57:38.525Z,99.90
2023-08-11T21:00:06.917Z,99.90
2023-08-11T21:02:34.371Z,99.90
2023-08-11T21:05:01.821Z,99.90
2023-08-11T21:07:29.049Z,99.90
2023-08-11T21:09:57.149Z,99.90
2023-08-11T21:12:24.397Z,99.90
2023-08-11T21:14:51.610Z,99.90
2023-08-11T21:17:18.971Z,99.90
2023-08-11T21:19:46.258Z,99.90
2023-08-11T21:22:14.059Z,99.90
2023-08-11T21:24:41.300Z,99.90
2023-08-11T21:27:08.683Z,99.90
2023-08-11T21:29:36.772Z,99.90
2023-08-11T21:32:04.751Z,99.90
2023-08-11T21:34:32.192Z,99.90
2023-08-11T21:37:01.778Z,99.90
2023-08-11T21:39:29.565Z,99.90
2023-08-11T21:41:56.783Z,99.90
2023-08-11T21:44:24.022Z,99.90
2023-08-11T21:46:51.420Z,99.90
2023-08-11T21:49:18.740Z,99.90
2023-08-11T21:51:45.988Z,99.90
2023-08-11T21:54:13.265Z,99.90
2023-08-11T21:56:40.494Z,99.90
2023-08-11T21:59:08.269Z,99.90
2023-08-11T22:01:35.469Z,99.90
2023-08-11T22:04:03.099Z,99.90
2023-08-11T22:06:30.324Z,99.90
2023-08-11T22:08:57.986Z,99.90
2023-08-11T22:11:35.893Z,99.90
2023-08-11T22:14:05.192Z,99.90
2023-08-11T22:16:35.639Z,99.90
2023-08-11T22:19:03.083Z,99.90
2023-08-11T22:21:31.040Z,99.90
2023-08-11T22:23:58.284Z,99.90
2023-08-11T22:26:25.524Z,99.90
2023-08-11T22:28:52.807Z,99.90
2023-08-11T22:31:20.094Z,99.90
2023-08-11T22:33:47.440Z,99.90
2023-08-11T22:36:15.505Z,99.90
2023-08-11T22:38:42.821Z,99.90
2023-08-11T22:41:10.066Z,99.90
2023-08-11T22:43:37.276Z,99.90
2023-08-11T22:46:05.346Z,99.90
2023-08-11T22:48:32.745Z,99.90
2023-08-11T22:51:00.366Z,99.90
2023-08-11T22:53:27.745Z,99.90
2023-08-11T22:55:55.816Z,99.90
2023-08-11T22:58:23.113Z,99.90
2023-08-11T23:00:50.341Z,99.90
2023-08-11T23:03:17.597Z,99.90
2023-08-11T23:05:44.813Z,99.90
2023-08-11T23:08:12.601Z,99.90
2023-08-11T23:10:39.839Z,99.90
2023-08-11T23:13:07.448Z,99.90
2023-08-11T23:15:34.670Z,99.90
2023-08-11T23:18:02.105Z,99.90
2023-08-11T23:20:29.399Z,99.90
2023-08-11T23:22:56.662Z,99.90
2023-08-11T23:25:23.902Z,99.90
2023-08-11T23:27:51.172Z,99.90
2023-08-11T23:30:18.377Z,99.90
2023-08-11T23:32:45.621Z,99.90
2023-08-11T23:35:13.253Z,99.90
2023-08-11T23:37:40.500Z,99.90
2023-08-11T23:40:08.399Z,99.90
2023-08-11T23:42:35.720Z,99.90
2023-08-11T23:45:06.731Z,99.90
2023-08-11T23:47:37.900Z,99.90
2023-08-11T23:50:05.547Z,99.90
2023-08-11T23:52:36.044Z,99.90
2023-08-11T23:55:06.781Z,99.90
2023-08-11T23:57:35.299Z,99.90
